sensor_id;sensor_type;location;lat;lon;timestamp;pressure;altitude;pressure_sealevel;temperature;humidity
59588;BME280;45412;54.472;18.464;2023-05-15T00:00:54;99772.38;;;12.71;70.67
59588;BME280;45412;54.472;18.464;2023-05-15T00:03:42;99773.70;;;12.73;70.57
59588;BME280;45412;54.472;18.464;2023-05-15T00:06:31;99772.02;;;12.76;70.70
59588;BME280;45412;54.472;18.464;2023-05-15T00:09:19;99762.97;;;12.78;70.46
59588;BME280;45412;54.472;18.464;2023-05-15T00:12:08;99762.07;;;12.78;70.39
59588;BME280;45412;54.472;18.464;2023-05-15T00:14:56;99753.33;;;12.76;70.46
59588;BME280;45412;54.472;18.464;2023-05-15T00:17:45;99756.98;;;12.75;70.77
59588;BME280;45412;54.472;18.464;2023-05-15T00:20:35;99753.02;;;12.74;70.88
59588;BME280;45412;54.472;18.464;2023-05-15T00:23:24;99746.52;;;12.71;70.85
59588;BME280;45412;54.472;18.464;2023-05-15T00:26:13;99743.66;;;12.69;70.98
59588;BME280;45412;54.472;18.464;2023-05-15T00:29:03;99738.41;;;12.66;70.94
59588;BME280;45412;54.472;18.464;2023-05-15T00:31:51;99733.71;;;12.63;71.03
59588;BME280;45412;54.472;18.464;2023-05-15T00:34:41;99730.73;;;12.61;70.95
59588;BME280;45412;54.472;18.464;2023-05-15T00:37:31;99723.32;;;12.58;71.10
59588;BME280;45412;54.472;18.464;2023-05-15T00:40:23;99725.40;;;12.56;71.31
59588;BME280;45412;54.472;18.464;2023-05-15T00:43:15;99721.54;;;12.54;71.41
59588;BME280;45412;54.472;18.464;2023-05-15T00:46:07;99719.89;;;12.53;71.67
59588;BME280;45412;54.472;18.464;2023-05-15T00:48:59;99714.72;;;12.51;72.04
59588;BME280;45412;54.472;18.464;2023-05-15T00:51:50;99711.74;;;12.50;72.09
59588;BME280;45412;54.472;18.464;2023-05-15T00:54:40;99712.22;;;12.49;72.18
59588;BME280;45412;54.472;18.464;2023-05-15T00:57:33;99710.90;;;12.46;72.51
59588;BME280;45412;54.472;18.464;2023-05-15T01:00:21;99705.90;;;12.42;72.39
59588;BME280;45412;54.472;18.464;2023-05-15T01:03:10;99703.25;;;12.38;72.79
59588;BME280;45412;54.472;18.464;2023-05-15T01:05:58;99702.27;;;12.33;72.75
59588;BME280;45412;54.472;18.464;2023-05-15T01:08:48;99696.02;;;12.27;72.86
59588;BME280;45412;54.472;18.464;2023-05-15T01:11:37;99695.66;;;12.22;73.07
59588;BME280;45412;54.472;18.464;2023-05-15T01:14:26;99693.24;;;12.17;73.26
59588;BME280;45412;54.472;18.464;2023-05-15T01:17:14;99694.80;;;12.13;73.54
59588;BME280;45412;54.472;18.464;2023-05-15T01:20:05;99697.50;;;12.11;73.97
59588;BME280;45412;54.472;18.464;2023-05-15T01:30:33;99687.23;;;12.10;74.60
59588;BME280;45412;54.472;18.464;2023-05-15T01:33:34;99684.95;;;12.10;74.42
59588;BME280;45412;54.472;18.464;2023-05-15T01:36:38;99683.73;;;12.10;74.59
59588;BME280;45412;54.472;18.464;2023-05-15T01:39:32;99682.13;;;12.08;74.75
59588;BME280;45412;54.472;18.464;2023-05-15T01:42:28;99678.96;;;12.05;74.45
59588;BME280;45412;54.472;18.464;2023-05-15T01:45:20;99675.59;;;12.03;74.69
59588;BME280;45412;54.472;18.464;2023-05-15T01:48:12;99669.89;;;12.00;74.87
59588;BME280;45412;54.472;18.464;2023-05-15T01:51:05;99678.28;;;11.97;75.16
59588;BME280;45412;54.472;18.464;2023-05-15T01:53:55;99670.09;;;11.95;75.13
59588;BME280;45412;54.472;18.464;2023-05-15T01:56:46;99672.48;;;11.95;75.29
59588;BME280;45412;54.472;18.464;2023-05-15T01:59:36;99669.73;;;11.96;75.71
59588;BME280;45412;54.472;18.464;2023-05-15T02:02:26;99667.84;;;11.97;75.69
59588;BME280;45412;54.472;18.464;2023-05-15T02:05:17;99666.60;;;11.97;76.00
59588;BME280;45412;54.472;18.464;2023-05-15T02:08:07;99664.18;;;11.96;76.03
59588;BME280;45412;54.472;18.464;2023-05-15T02:10:59;99661.91;;;11.93;75.86
59588;BME280;45412;54.472;18.464;2023-05-15T02:13:49;99658.33;;;11.91;75.96
59588;BME280;45412;54.472;18.464;2023-05-15T02:16:39;99655.15;;;11.89;76.29
59588;BME280;45412;54.472;18.464;2023-05-15T02:19:28;99651.00;;;11.86;76.03
59588;BME280;45412;54.472;18.464;2023-05-15T02:22:16;99647.09;;;11.84;76.13
59588;BME280;45412;54.472;18.464;2023-05-15T02:25:05;99645.80;;;11.82;76.51
59588;BME280;45412;54.472;18.464;2023-05-15T02:27:59;99642.45;;;11.82;76.45
59588;BME280;45412;54.472;18.464;2023-05-15T02:31:05;99639.54;;;11.83;76.78
59588;BME280;45412;54.472;18.464;2023-05-15T02:34:25;99639.10;;;11.86;76.86
59588;BME280;45412;54.472;18.464;2023-05-15T02:37:22;99638.54;;;11.88;77.02
59588;BME280;45412;54.472;18.464;2023-05-15T02:40:12;99632.15;;;11.90;76.89
59588;BME280;45412;54.472;18.464;2023-05-15T02:43:02;99631.89;;;11.91;76.97
59588;BME280;45412;54.472;18.464;2023-05-15T02:45:53;99630.40;;;11.89;76.30
59588;BME280;45412;54.472;18.464;2023-05-15T02:48:43;99630.71;;;11.88;76.14
59588;BME280;45412;54.472;18.464;2023-05-15T02:51:33;99627.78;;;11.87;76.34
59588;BME280;45412;54.472;18.464;2023-05-15T02:54:21;99624.23;;;11.85;76.27
59588;BME280;45412;54.472;18.464;2023-05-15T02:57:11;99622.29;;;11.85;76.55
59588;BME280;45412;54.472;18.464;2023-05-15T02:59:59;99620.27;;;11.86;76.68
59588;BME280;45412;54.472;18.464;2023-05-15T03:02:47;99613.50;;;11.88;76.63
59588;BME280;45412;54.472;18.464;2023-05-15T03:05:37;99608.37;;;11.91;76.44
59588;BME280;45412;54.472;18.464;2023-05-15T03:08:26;99604.30;;;11.96;76.77
59588;BME280;45412;54.472;18.464;2023-05-15T03:11:15;99601.05;;;11.98;76.42
59588;BME280;45412;54.472;18.464;2023-05-15T03:14:06;99596.70;;;12.01;76.25
59588;BME280;45412;54.472;18.464;2023-05-15T03:16:54;99591.27;;;12.02;76.17
59588;BME280;45412;54.472;18.464;2023-05-15T03:19:42;99581.59;;;12.01;75.92
59588;BME280;45412;54.472;18.464;2023-05-15T03:22:30;99580.25;;;12.04;75.56
59588;BME280;45412;54.472;18.464;2023-05-15T03:25:19;99576.45;;;12.04;75.59
59588;BME280;45412;54.472;18.464;2023-05-15T03:28:07;99572.83;;;12.06;75.53
59588;BME280;45412;54.472;18.464;2023-05-15T03:30:56;99574.27;;;12.07;75.51
59588;BME280;45412;54.472;18.464;2023-05-15T03:33:47;99567.40;;;12.11;75.34
59588;BME280;45412;54.472;18.464;2023-05-15T03:36:37;99568.05;;;12.15;75.10
59588;BME280;45412;54.472;18.464;2023-05-15T03:39:26;99569.30;;;12.19;75.05
59588;BME280;45412;54.472;18.464;2023-05-15T03:42:16;99566.59;;;12.23;74.61
59588;BME280;45412;54.472;18.464;2023-05-15T03:45:09;99562.91;;;12.26;74.02
59588;BME280;45412;54.472;18.464;2023-05-15T03:47:58;99559.48;;;12.29;73.77
59588;BME280;45412;54.472;18.464;2023-05-15T03:50:47;99558.86;;;12.30;73.45
59588;BME280;45412;54.472;18.464;2023-05-15T03:53:35;99552.69;;;12.29;73.23
59588;BME280;45412;54.472;18.464;2023-05-15T03:56:26;99549.16;;;12.29;73.53
59588;BME280;45412;54.472;18.464;2023-05-15T03:59:15;99546.65;;;12.27;73.36
59588;BME280;45412;54.472;18.464;2023-05-15T04:02:03;99546.60;;;12.25;73.58
59588;BME280;45412;54.472;18.464;2023-05-15T04:04:52;99545.77;;;12.27;73.89
59588;BME280;45412;54.472;18.464;2023-05-15T04:07:41;99543.98;;;12.27;73.99
59588;BME280;45412;54.472;18.464;2023-05-15T04:10:32;99545.45;;;12.29;73.99
59588;BME280;45412;54.472;18.464;2023-05-15T04:13:21;99545.20;;;12.33;74.24
59588;BME280;45412;54.472;18.464;2023-05-15T04:16:10;99544.98;;;12.38;74.26
59588;BME280;45412;54.472;18.464;2023-05-15T04:18:58;99539.66;;;12.43;74.24
59588;BME280;45412;54.472;18.464;2023-05-15T04:21:47;99543.83;;;12.48;74.13
59588;BME280;45412;54.472;18.464;2023-05-15T04:24:37;99549.66;;;12.54;74.16
59588;BME280;45412;54.472;18.464;2023-05-15T04:27:25;99548.63;;;12.59;73.69
59588;BME280;45412;54.472;18.464;2023-05-15T04:30:14;99548.10;;;12.69;73.82
59588;BME280;45412;54.472;18.464;2023-05-15T04:33:02;99549.70;;;12.76;73.70
59588;BME280;45412;54.472;18.464;2023-05-15T04:35:51;99545.67;;;12.85;73.75
59588;BME280;45412;54.472;18.464;2023-05-15T04:38:40;99551.08;;;12.94;73.63
59588;BME280;45412;54.472;18.464;2023-05-15T04:41:28;99544.94;;;13.04;73.50
59588;BME280;45412;54.472;18.464;2023-05-15T04:44:17;99540.77;;;13.14;73.33
59588;BME280;45412;54.472;18.464;2023-05-15T04:47:05;99534.16;;;13.23;72.97
59588;BME280;45412;54.472;18.464;2023-05-15T04:50:02;99533.48;;;13.32;72.52
59588;BME280;45412;54.472;18.464;2023-05-15T04:53:03;99528.67;;;13.40;71.84
59588;BME280;45412;54.472;18.464;2023-05-15T04:55:53;99522.65;;;13.47;71.24
59588;BME280;45412;54.472;18.464;2023-05-15T04:58:52;99522.93;;;13.55;70.90
59588;BME280;45412;54.472;18.464;2023-05-15T05:01:45;99515.48;;;13.66;70.31
59588;BME280;45412;54.472;18.464;2023-05-15T05:04:33;99509.44;;;13.76;69.85
59588;BME280;45412;54.472;18.464;2023-05-15T05:07:22;99506.35;;;13.87;69.38
59588;BME280;45412;54.472;18.464;2023-05-15T05:10:11;99505.80;;;14.02;69.31
59588;BME280;45412;54.472;18.464;2023-05-15T05:12:59;99494.48;;;14.11;68.94
59588;BME280;45412;54.472;18.464;2023-05-15T05:15:47;99495.91;;;14.22;68.99
59588;BME280;45412;54.472;18.464;2023-05-15T05:18:36;99495.55;;;14.32;68.87
59588;BME280;45412;54.472;18.464;2023-05-15T05:21:24;99475.80;;;14.34;68.67
59588;BME280;45412;54.472;18.464;2023-05-15T05:24:12;99485.96;;;14.51;68.63
59588;BME280;45412;54.472;18.464;2023-05-15T05:27:01;99484.99;;;14.63;68.51
59588;BME280;45412;54.472;18.464;2023-05-15T05:29:49;99483.63;;;14.74;68.22
59588;BME280;45412;54.472;18.464;2023-05-15T05:32:39;99483.55;;;14.85;68.08
59588;BME280;45412;54.472;18.464;2023-05-15T05:35:28;99483.04;;;14.93;67.75
59588;BME280;45412;54.472;18.464;2023-05-15T05:38:16;99478.44;;;15.02;67.86
59588;BME280;45412;54.472;18.464;2023-05-15T05:41:04;99481.31;;;15.08;67.51
59588;BME280;45412;54.472;18.464;2023-05-15T05:43:52;99476.95;;;15.12;67.43
59588;BME280;45412;54.472;18.464;2023-05-15T05:46:41;99481.10;;;15.15;66.79
59588;BME280;45412;54.472;18.464;2023-05-15T05:49:29;99483.61;;;15.14;66.68
59588;BME280;45412;54.472;18.464;2023-05-15T05:52:18;99492.08;;;15.08;66.78
59588;BME280;45412;54.472;18.464;2023-05-15T05:55:08;99495.83;;;15.03;66.82
59588;BME280;45412;54.472;18.464;2023-05-15T05:57:56;99485.92;;;14.95;67.15
59588;BME280;45412;54.472;18.464;2023-05-15T06:00:46;99490.48;;;14.91;67.32
59588;BME280;45412;54.472;18.464;2023-05-15T06:03:34;99501.39;;;14.87;67.49
59588;BME280;45412;54.472;18.464;2023-05-15T06:06:22;99510.17;;;14.89;67.34
59588;BME280;45412;54.472;18.464;2023-05-15T06:09:11;99494.52;;;14.88;67.47
59588;BME280;45412;54.472;18.464;2023-05-15T06:11:59;99497.48;;;14.82;67.32
59588;BME280;45412;54.472;18.464;2023-05-15T06:14:47;99486.71;;;14.77;67.10
59588;BME280;45412;54.472;18.464;2023-05-15T06:17:36;99484.73;;;14.76;67.46
59588;BME280;45412;54.472;18.464;2023-05-15T06:20:27;99472.27;;;14.73;67.53
59588;BME280;45412;54.472;18.464;2023-05-15T06:23:15;99461.31;;;14.71;67.60
59588;BME280;45412;54.472;18.464;2023-05-15T06:26:03;99456.52;;;14.70;67.65
59588;BME280;45412;54.472;18.464;2023-05-15T06:28:52;99460.19;;;14.71;67.64
59588;BME280;45412;54.472;18.464;2023-05-15T06:31:40;99477.79;;;14.70;67.43
59588;BME280;45412;54.472;18.464;2023-05-15T06:34:28;99499.46;;;14.68;67.90
59588;BME280;45412;54.472;18.464;2023-05-15T06:37:17;99496.48;;;14.66;68.01
59588;BME280;45412;54.472;18.464;2023-05-15T06:40:07;99489.39;;;14.69;67.80
59588;BME280;45412;54.472;18.464;2023-05-15T06:42:56;99491.20;;;14.74;67.73
59588;BME280;45412;54.472;18.464;2023-05-15T06:45:45;99479.87;;;14.81;67.98
59588;BME280;45412;54.472;18.464;2023-05-15T06:48:34;99476.16;;;14.89;68.24
59588;BME280;45412;54.472;18.464;2023-05-15T06:51:23;99484.33;;;14.93;68.07
59588;BME280;45412;54.472;18.464;2023-05-15T06:54:11;99479.70;;;15.02;67.98
59588;BME280;45412;54.472;18.464;2023-05-15T06:56:59;99475.16;;;15.09;67.49
59588;BME280;45412;54.472;18.464;2023-05-15T06:59:49;99481.52;;;15.16;66.99
59588;BME280;45412;54.472;18.464;2023-05-15T07:02:37;99472.81;;;15.21;66.77
59588;BME280;45412;54.472;18.464;2023-05-15T07:05:26;99474.08;;;15.24;66.20
59588;BME280;45412;54.472;18.464;2023-05-15T07:08:14;99455.40;;;15.27;66.25
59588;BME280;45412;54.472;18.464;2023-05-15T07:11:03;99441.83;;;15.28;66.73
59588;BME280;45412;54.472;18.464;2023-05-15T07:13:52;99430.67;;;15.31;66.80
59588;BME280;45412;54.472;18.464;2023-05-15T07:16:40;99431.52;;;15.35;66.41
59588;BME280;45412;54.472;18.464;2023-05-15T07:19:30;99434.14;;;15.40;64.66
59588;BME280;45412;54.472;18.464;2023-05-15T07:22:18;99433.91;;;15.46;63.77
59588;BME280;45412;54.472;18.464;2023-05-15T07:25:07;99428.45;;;15.52;64.38
59588;BME280;45412;54.472;18.464;2023-05-15T07:27:56;99432.27;;;15.59;63.80
59588;BME280;45412;54.472;18.464;2023-05-15T07:30:44;99438.88;;;15.66;63.40
59588;BME280;45412;54.472;18.464;2023-05-15T07:33:32;99459.77;;;15.68;61.96
59588;BME280;45412;54.472;18.464;2023-05-15T07:36:21;99471.73;;;15.70;61.25
59588;BME280;45412;54.472;18.464;2023-05-15T07:39:09;99461.21;;;15.74;61.80
59588;BME280;45412;54.472;18.464;2023-05-15T07:41:57;99462.46;;;15.81;61.79
59588;BME280;45412;54.472;18.464;2023-05-15T07:44:45;99459.39;;;15.93;61.17
59588;BME280;45412;54.472;18.464;2023-05-15T07:47:36;99442.42;;;16.09;60.98
59588;BME280;45412;54.472;18.464;2023-05-15T07:50:25;99453.73;;;16.33;60.48
59588;BME280;45412;54.472;18.464;2023-05-15T07:53:13;99451.60;;;16.49;59.36
59588;BME280;45412;54.472;18.464;2023-05-15T07:56:04;99445.04;;;16.56;58.25
59588;BME280;45412;54.472;18.464;2023-05-15T07:58:52;99441.14;;;16.58;57.94
59588;BME280;45412;54.472;18.464;2023-05-15T08:01:42;99436.13;;;16.65;58.02
59588;BME280;45412;54.472;18.464;2023-05-15T08:04:30;99409.41;;;16.78;58.50
59588;BME280;45412;54.472;18.464;2023-05-15T08:07:24;99392.47;;;16.92;57.81
59588;BME280;45412;54.472;18.464;2023-05-15T08:10:13;99374.73;;;17.03;56.30
59588;BME280;45412;54.472;18.464;2023-05-15T08:13:01;99367.25;;;17.17;55.14
59588;BME280;45412;54.472;18.464;2023-05-15T08:15:49;99364.66;;;17.31;53.04
59588;BME280;45412;54.472;18.464;2023-05-15T08:18:38;99356.81;;;17.49;51.23
59588;BME280;45412;54.472;18.464;2023-05-15T08:21:26;99358.08;;;17.66;49.53
59588;BME280;45412;54.472;18.464;2023-05-15T08:24:15;99373.22;;;17.79;47.44
59588;BME280;45412;54.472;18.464;2023-05-15T08:27:05;99374.67;;;17.90;46.24
59588;BME280;45412;54.472;18.464;2023-05-15T08:29:53;99383.91;;;17.96;46.14
59588;BME280;45412;54.472;18.464;2023-05-15T08:32:42;99370.86;;;18.05;45.63
59588;BME280;45412;54.472;18.464;2023-05-15T08:35:35;99363.55;;;18.14;44.87
59588;BME280;45412;54.472;18.464;2023-05-15T08:38:24;99351.13;;;18.25;45.61
59588;BME280;45412;54.472;18.464;2023-05-15T08:41:24;99346.02;;;18.30;45.91
59588;BME280;45412;54.472;18.464;2023-05-15T08:44:27;99342.23;;;18.31;45.76
59588;BME280;45412;54.472;18.464;2023-05-15T08:47:18;99347.60;;;18.33;45.87
59588;BME280;45412;54.472;18.464;2023-05-15T08:50:15;99347.55;;;18.30;46.41
59588;BME280;45412;54.472;18.464;2023-05-15T08:53:04;99350.09;;;18.27;46.55
59588;BME280;45412;54.472;18.464;2023-05-15T08:55:53;99356.33;;;18.26;46.60
59588;BME280;45412;54.472;18.464;2023-05-15T08:58:41;99352.04;;;18.33;46.42
59588;BME280;45412;54.472;18.464;2023-05-15T09:01:30;99351.23;;;18.38;46.04
59588;BME280;45412;54.472;18.464;2023-05-15T09:04:19;99378.09;;;18.39;45.40
59588;BME280;45412;54.472;18.464;2023-05-15T09:07:08;99359.58;;;18.27;45.52
59588;BME280;45412;54.472;18.464;2023-05-15T09:10:00;99357.95;;;18.14;46.03
59588;BME280;45412;54.472;18.464;2023-05-15T09:12:51;99360.79;;;18.07;46.46
59588;BME280;45412;54.472;18.464;2023-05-15T09:15:39;99366.59;;;18.01;46.57
59588;BME280;45412;54.472;18.464;2023-05-15T09:18:29;99361.79;;;18.01;46.79
59588;BME280;45412;54.472;18.464;2023-05-15T09:21:27;99357.32;;;17.89;47.01
59588;BME280;45412;54.472;18.464;2023-05-15T09:24:24;99368.42;;;17.80;47.41
59588;BME280;45412;54.472;18.464;2023-05-15T09:27:15;99367.98;;;17.72;47.44
59588;BME280;45412;54.472;18.464;2023-05-15T09:30:09;99356.77;;;17.73;47.91
59588;BME280;45412;54.472;18.464;2023-05-15T09:32:59;99348.56;;;17.80;48.48
59588;BME280;45412;54.472;18.464;2023-05-15T09:35:50;99347.54;;;17.84;48.10
59588;BME280;45412;54.472;18.464;2023-05-15T09:38:41;99351.39;;;17.89;47.54
59588;BME280;45412;54.472;18.464;2023-05-15T09:41:30;99364.51;;;17.83;45.73
59588;BME280;45412;54.472;18.464;2023-05-15T09:44:25;99368.40;;;17.83;46.13
59588;BME280;45412;54.472;18.464;2023-05-15T09:47:14;99364.73;;;17.77;46.18
59588;BME280;45412;54.472;18.464;2023-05-15T09:50:08;99370.27;;;17.78;46.13
59588;BME280;45412;54.472;18.464;2023-05-15T09:52:58;99364.70;;;17.83;45.91
59588;BME280;45412;54.472;18.464;2023-05-15T09:55:47;99355.14;;;17.88;45.73
59588;BME280;45412;54.472;18.464;2023-05-15T09:58:37;99351.11;;;17.90;45.37
59588;BME280;45412;54.472;18.464;2023-05-15T10:01:26;99350.16;;;17.81;44.93
59588;BME280;45412;54.472;18.464;2023-05-15T10:04:15;99350.77;;;17.72;45.61
59588;BME280;45412;54.472;18.464;2023-05-15T10:07:07;99352.92;;;17.63;46.17
59588;BME280;45412;54.472;18.464;2023-05-15T10:09:57;99354.22;;;17.50;47.09
59588;BME280;45412;54.472;18.464;2023-05-15T10:12:46;99353.63;;;17.40;47.48
59588;BME280;45412;54.472;18.464;2023-05-15T10:15:36;99352.39;;;17.40;47.87
59588;BME280;45412;54.472;18.464;2023-05-15T10:18:28;99356.39;;;17.47;48.26
59588;BME280;45412;54.472;18.464;2023-05-15T10:21:19;99344.02;;;17.54;48.28
59588;BME280;45412;54.472;18.464;2023-05-15T10:24:10;99342.18;;;17.55;48.57
59588;BME280;45412;54.472;18.464;2023-05-15T10:27:04;99343.97;;;17.56;48.23
59588;BME280;45412;54.472;18.464;2023-05-15T10:29:55;99348.55;;;17.48;47.96
59588;BME280;45412;54.472;18.464;2023-05-15T10:32:44;99360.23;;;17.36;47.79
59588;BME280;45412;54.472;18.464;2023-05-15T10:35:33;99372.02;;;17.31;48.60
59588;BME280;45412;54.472;18.464;2023-05-15T10:38:23;99377.20;;;17.22;49.06
59588;BME280;45412;54.472;18.464;2023-05-15T10:41:16;99381.89;;;17.10;50.37
59588;BME280;45412;54.472;18.464;2023-05-15T10:44:04;99391.84;;;16.96;51.34
59588;BME280;45412;54.472;18.464;2023-05-15T10:46:54;99393.10;;;16.77;53.16
59588;BME280;45412;54.472;18.464;2023-05-15T10:49:44;99383.73;;;16.48;53.96
59588;BME280;45412;54.472;18.464;2023-05-15T10:52:37;99394.83;;;16.20;54.82
59588;BME280;45412;54.472;18.464;2023-05-15T10:55:26;99373.09;;;15.84;57.38
59588;BME280;45412;54.472;18.464;2023-05-15T10:58:14;99365.05;;;15.62;59.07
59588;BME280;45412;54.472;18.464;2023-05-15T11:01:01;99359.86;;;15.46;58.85
59588;BME280;45412;54.472;18.464;2023-05-15T11:03:50;99357.77;;;15.39;60.60
59588;BME280;45412;54.472;18.464;2023-05-15T11:06:45;99355.04;;;15.29;61.72
59588;BME280;45412;54.472;18.464;2023-05-15T11:09:37;99342.88;;;15.22;63.18
59588;BME280;45412;54.472;18.464;2023-05-15T11:12:58;99317.11;;;15.18;63.97
59588;BME280;45412;54.472;18.464;2023-05-15T11:15:47;99294.58;;;15.15;66.68
59588;BME280;45412;54.472;18.464;2023-05-15T11:18:35;99287.98;;;15.07;65.28
59588;BME280;45412;54.472;18.464;2023-05-15T11:21:30;99280.31;;;15.09;66.07
59588;BME280;45412;54.472;18.464;2023-05-15T11:24:19;99271.03;;;15.17;66.69
59588;BME280;45412;54.472;18.464;2023-05-15T11:27:11;99255.53;;;15.26;67.61
59588;BME280;45412;54.472;18.464;2023-05-15T11:30:20;99253.13;;;15.30;67.14
59588;BME280;45412;54.472;18.464;2023-05-15T11:33:10;99242.83;;;15.36;67.79
59588;BME280;45412;54.472;18.464;2023-05-15T11:35:59;99233.46;;;15.41;68.29
59588;BME280;45412;54.472;18.464;2023-05-15T11:38:49;99226.08;;;15.37;68.24
59588;BME280;45412;54.472;18.464;2023-05-15T11:41:38;99217.41;;;15.33;67.78
59588;BME280;45412;54.472;18.464;2023-05-15T11:44:28;99211.86;;;15.25;68.67
59588;BME280;45412;54.472;18.464;2023-05-15T11:47:18;99212.41;;;15.10;69.71
59588;BME280;45412;54.472;18.464;2023-05-15T11:50:07;99208.94;;;14.98;70.23
59588;BME280;45412;54.472;18.464;2023-05-15T11:53:05;99202.74;;;14.89;70.73
59588;BME280;45412;54.472;18.464;2023-05-15T11:55:55;99206.91;;;14.80;70.68
59588;BME280;45412;54.472;18.464;2023-05-15T11:58:50;99205.52;;;14.72;71.55
59588;BME280;45412;54.472;18.464;2023-05-15T12:01:43;99207.06;;;14.68;72.34
59588;BME280;45412;54.472;18.464;2023-05-15T12:04:34;99205.17;;;14.60;72.76
59588;BME280;45412;54.472;18.464;2023-05-15T12:07:22;99209.55;;;14.54;72.52
59588;BME280;45412;54.472;18.464;2023-05-15T12:10:12;99210.54;;;14.52;73.38
59588;BME280;45412;54.472;18.464;2023-05-15T12:13:00;99214.55;;;14.47;74.24
59588;BME280;45412;54.472;18.464;2023-05-15T12:15:48;99216.95;;;14.43;75.02
59588;BME280;45412;54.472;18.464;2023-05-15T12:18:37;99207.75;;;14.41;75.30
59588;BME280;45412;54.472;18.464;2023-05-15T12:21:26;99200.68;;;14.38;75.41
59588;BME280;45412;54.472;18.464;2023-05-15T12:24:19;99203.15;;;14.37;75.87
59588;BME280;45412;54.472;18.464;2023-05-15T12:27:08;99203.41;;;14.31;76.47
59588;BME280;45412;54.472;18.464;2023-05-15T12:29:57;99201.97;;;14.28;76.57
59588;BME280;45412;54.472;18.464;2023-05-15T12:32:47;99203.62;;;14.29;77.49
59588;BME280;45412;54.472;18.464;2023-05-15T12:35:42;99192.18;;;14.41;77.67
59588;BME280;45412;54.472;18.464;2023-05-15T12:38:30;99182.66;;;14.47;76.67
59588;BME280;45412;54.472;18.464;2023-05-15T12:41:21;99175.31;;;14.51;76.57
59588;BME280;45412;54.472;18.464;2023-05-15T12:44:16;99174.36;;;14.51;77.55
59588;BME280;45412;54.472;18.464;2023-05-15T12:47:05;99169.24;;;14.49;77.30
59588;BME280;45412;54.472;18.464;2023-05-15T12:49:58;99166.49;;;14.41;77.54
59588;BME280;45412;54.472;18.464;2023-05-15T12:52:54;99160.48;;;14.29;77.53
59588;BME280;45412;54.472;18.464;2023-05-15T12:55:45;99153.12;;;14.18;79.04
59588;BME280;45412;54.472;18.464;2023-05-15T12:58:36;99157.63;;;14.09;78.47
59588;BME280;45412;54.472;18.464;2023-05-15T13:01:25;99158.35;;;14.04;78.73
59588;BME280;45412;54.472;18.464;2023-05-15T13:04:15;99155.41;;;14.05;79.07
59588;BME280;45412;54.472;18.464;2023-05-15T13:07:04;99154.52;;;14.06;79.60
59588;BME280;45412;54.472;18.464;2023-05-15T13:10:07;99142.37;;;14.10;80.20
59588;BME280;45412;54.472;18.464;2023-05-15T13:12:57;99143.55;;;14.14;79.94
59588;BME280;45412;54.472;18.464;2023-05-15T13:15:47;99146.02;;;14.14;79.40
59588;BME280;45412;54.472;18.464;2023-05-15T13:18:37;99133.10;;;14.07;78.27
59588;BME280;45412;54.472;18.464;2023-05-15T13:21:26;99136.50;;;14.05;77.90
59588;BME280;45412;54.472;18.464;2023-05-15T13:24:14;99129.45;;;14.01;78.38
59588;BME280;45412;54.472;18.464;2023-05-15T13:27:05;99127.70;;;13.99;78.65
59588;BME280;45412;54.472;18.464;2023-05-15T13:29:53;99134.02;;;13.98;80.07
59588;BME280;45412;54.472;18.464;2023-05-15T13:32:42;99133.41;;;13.97;80.97
59588;BME280;45412;54.472;18.464;2023-05-15T13:35:30;99125.69;;;13.91;81.20
59588;BME280;45412;54.472;18.464;2023-05-15T13:38:17;99136.39;;;13.84;81.23
59588;BME280;45412;54.472;18.464;2023-05-15T13:41:05;99139.31;;;13.76;81.40
59588;BME280;45412;54.472;18.464;2023-05-15T13:43:55;99143.23;;;13.70;81.85
59588;BME280;45412;54.472;18.464;2023-05-15T13:46:45;99146.42;;;13.63;82.48
59588;BME280;45412;54.472;18.464;2023-05-15T13:49:34;99141.96;;;13.58;83.24
59588;BME280;45412;54.472;18.464;2023-05-15T13:52:23;99133.64;;;13.52;83.57
59588;BME280;45412;54.472;18.464;2023-05-15T13:55:11;99128.59;;;13.49;84.21
59588;BME280;45412;54.472;18.464;2023-05-15T13:58:00;99126.59;;;13.50;83.92
59588;BME280;45412;54.472;18.464;2023-05-15T14:00:49;99126.55;;;13.50;84.30
59588;BME280;45412;54.472;18.464;2023-05-15T14:03:38;99113.27;;;13.48;84.16
59588;BME280;45412;54.472;18.464;2023-05-15T14:06:26;99118.86;;;13.49;83.93
59588;BME280;45412;54.472;18.464;2023-05-15T14:09:14;99114.27;;;13.45;84.08
59588;BME280;45412;54.472;18.464;2023-05-15T14:12:03;99114.16;;;13.41;84.32
59588;BME280;45412;54.472;18.464;2023-05-15T14:14:52;99112.44;;;13.35;84.15
59588;BME280;45412;54.472;18.464;2023-05-15T14:17:41;99111.17;;;13.30;85.22
59588;BME280;45412;54.472;18.464;2023-05-15T14:20:30;99108.57;;;13.24;85.78
59588;BME280;45412;54.472;18.464;2023-05-15T14:23:18;99109.42;;;13.14;85.51
59588;BME280;45412;54.472;18.464;2023-05-15T14:26:06;99101.90;;;13.04;86.22
59588;BME280;45412;54.472;18.464;2023-05-15T14:28:54;99092.73;;;12.96;86.51
59588;BME280;45412;54.472;18.464;2023-05-15T14:31:43;99086.34;;;12.87;86.84
59588;BME280;45412;54.472;18.464;2023-05-15T14:34:31;99085.23;;;12.79;87.40
59588;BME280;45412;54.472;18.464;2023-05-15T14:37:19;99080.31;;;12.66;88.15
59588;BME280;45412;54.472;18.464;2023-05-15T14:40:09;99076.56;;;12.59;89.33
59588;BME280;45412;54.472;18.464;2023-05-15T14:42:57;99072.17;;;12.51;89.95
59588;BME280;45412;54.472;18.464;2023-05-15T14:45:45;99068.08;;;12.48;90.82
59588;BME280;45412;54.472;18.464;2023-05-15T14:48:35;99060.96;;;12.47;91.56
59588;BME280;45412;54.472;18.464;2023-05-15T14:51:23;99050.83;;;12.43;92.08
59588;BME280;45412;54.472;18.464;2023-05-15T14:54:14;99045.90;;;12.39;91.94
59588;BME280;45412;54.472;18.464;2023-05-15T14:57:02;99037.80;;;12.36;92.69